createdAt,value
2019-06-26T00:00:50.255Z,5.50
2019-06-26T00:03:20.579Z,5.37
2019-06-26T00:05:50.826Z,6.07
2019-06-26T00:08:21.004Z,6.00
2019-06-26T00:10:51.189Z,6.10
2019-06-26T00:13:26.309Z,5.90
2019-06-26T00:15:53.338Z,6.33
2019-06-26T00:18:23.509Z,5.17
2019-06-26T00:20:53.817Z,5.70
2019-06-26T00:23:24.164Z,5.80
2019-06-26T00:25:54.606Z,6.23
2019-06-26T00:28:24.742Z,5.77
2019-06-26T00:30:55.089Z,5.47
2019-06-26T00:33:26.274Z,5.30
2019-06-26T00:35:56.521Z,5.47
2019-06-26T00:38:28.242Z,5.57
2019-06-26T00:40:58.539Z,5.73
2019-06-26T00:43:41.594Z,6.17
2019-06-26T00:46:00.632Z,6.10
2019-06-26T00:48:32.496Z,6.07
2019-06-26T00:53:53.524Z,6.37
2019-06-26T00:56:35.554Z,6.90
2019-06-26T00:59:17.805Z,6.33
2019-06-26T01:01:59.719Z,6.57
2019-06-26T01:04:44.122Z,7.00
2019-06-26T01:07:26.309Z,6.90
2019-06-26T01:10:08.281Z,7.30
2019-06-26T01:12:50.474Z,6.90
2019-06-26T01:15:32.539Z,7.20
2019-06-26T01:18:14.018Z,7.77
2019-06-26T01:20:55.766Z,8.17
2019-06-26T01:23:37.428Z,8.57
2019-06-26T01:26:19.293Z,8.47
2019-06-26T01:29:01.268Z,8.70
2019-06-26T01:31:43.532Z,9.17
2019-06-26T01:34:25.185Z,9.70
2019-06-26T01:37:08.467Z,10.20
2019-06-26T01:39:52.147Z,9.20
2019-06-26T01:42:34.195Z,9.43
2019-06-26T01:45:16.183Z,10.00
2019-06-26T01:47:58.213Z,10.40
2019-06-26T01:50:39.933Z,10.70
2019-06-26T01:53:22.054Z,9.37
2019-06-26T01:56:03.681Z,10.47
2019-06-26T01:58:45.799Z,11.33
2019-06-26T02:01:29.654Z,11.47
2019-06-26T02:04:11.652Z,12.07
2019-06-26T02:06:53.562Z,12.40
2019-06-26T02:09:35.674Z,11.93
2019-06-26T02:12:17.929Z,12.30
2019-06-26T02:15:00.042Z,13.00
2019-06-26T02:17:42.192Z,13.90
2019-06-26T02:20:24.065Z,14.00
2019-06-26T02:23:06.351Z,14.50
2019-06-26T02:25:50.010Z,14.03
2019-06-26T02:28:31.898Z,14.07
2019-06-26T02:31:13.826Z,15.60
2019-06-26T02:33:55.697Z,14.37
2019-06-26T02:36:37.629Z,15.67
2019-06-26T02:39:19.859Z,15.93
2019-06-26T02:42:04.534Z,17.43
2019-06-26T02:44:53.057Z,18.30
2019-06-26T02:47:29.676Z,16.57
2019-06-26T02:50:11.798Z,17.37
2019-06-26T02:52:54.107Z,17.97
2019-06-26T02:55:36.456Z,18.73
2019-06-26T02:58:18.353Z,17.97
2019-06-26T03:01:00.318Z,19.17
2019-06-26T03:03:43.444Z,18.10
2019-06-26T03:06:25.515Z,19.03
2019-06-26T03:09:07.490Z,19.90
2019-06-26T03:11:49.290Z,18.63
2019-06-26T03:14:31.134Z,18.80
2019-06-26T03:17:13.042Z,20.23
2019-06-26T03:19:55.241Z,19.77
2019-06-26T03:22:37.486Z,20.13
2019-06-26T03:25:20.373Z,19.07
2019-06-26T03:28:02.785Z,18.77
2019-06-26T03:30:44.981Z,19.33
2019-06-26T03:33:26.817Z,18.57
2019-06-26T03:36:09.038Z,19.33
2019-06-26T03:38:51.113Z,18.50
2019-06-26T03:41:33.063Z,20.23
2019-06-26T03:44:16.150Z,19.80
2019-06-26T03:46:58.026Z,20.73
2019-06-26T03:49:39.862Z,19.60
2019-06-26T03:52:22.044Z,20.23
2019-06-26T03:55:03.946Z,19.13
2019-06-26T03:57:45.627Z,19.33
2019-06-26T04:00:27.634Z,20.07
2019-06-26T04:03:09.699Z,20.07
2019-06-26T04:05:52.163Z,20.23
2019-06-26T04:08:34.170Z,20.30
2019-06-26T04:11:16.116Z,20.17
2019-06-26T04:13:57.938Z,21.90
2019-06-26T04:16:40.156Z,20.90
2019-06-26T04:19:22.322Z,20.57
2019-06-26T04:22:04.209Z,19.80
2019-06-26T04:24:46.210Z,20.73
2019-06-26T04:27:28.495Z,19.90
2019-06-26T04:30:11.149Z,21.57
2019-06-26T04:32:52.517Z,19.97
2019-06-26T04:35:34.802Z,21.03
2019-06-26T04:38:16.725Z,22.47
2019-06-26T04:40:59.078Z,22.30
2019-06-26T04:43:42.359Z,21.03
2019-06-26T04:46:23.989Z,20.63
2019-06-26T04:49:05.734Z,21.00
2019-06-26T04:51:47.361Z,22.03
2019-06-26T04:54:29.335Z,23.57
2019-06-26T04:57:11.108Z,25.80
2019-06-26T04:59:53.133Z,22.43
2019-06-26T05:02:35.341Z,22.03
2019-06-26T05:05:17.274Z,24.70
2019-06-26T05:07:59.175Z,22.17
2019-06-26T05:10:41.323Z,22.37
2019-06-26T05:13:22.791Z,21.17
2019-06-26T05:16:14.453Z,19.80
2019-06-26T05:18:48.133Z,22.73
2019-06-26T05:21:30.145Z,21.43
2019-06-26T05:24:12.019Z,21.47
2019-06-26T05:26:54.170Z,23.80
2019-06-26T05:29:36.243Z,23.23
2019-06-26T05:32:18.388Z,22.63
2019-06-26T05:35:00.185Z,22.33
2019-06-26T05:37:41.897Z,23.77
2019-06-26T05:40:24.098Z,24.13
2019-06-26T05:43:06.853Z,22.27
2019-06-26T05:45:49.562Z,22.07
2019-06-26T05:48:32.618Z,25.03
2019-06-26T05:51:15.022Z,24.37
2019-06-26T05:53:57.567Z,24.53
2019-06-26T05:56:40.385Z,23.63
2019-06-26T05:59:23.057Z,22.33
2019-06-26T06:02:05.365Z,21.93
2019-06-26T06:04:47.581Z,25.97
2019-06-26T06:07:30.137Z,22.20
2019-06-26T06:10:00.668Z,23.67
2019-06-26T06:12:50.018Z,23.97
2019-06-26T06:15:31.978Z,23.33
2019-06-26T06:18:14.093Z,24.10
2019-06-26T06:20:56.143Z,23.03
2019-06-26T06:23:38.094Z,23.40
2019-06-26T06:26:20.339Z,25.37
2019-06-26T06:29:03.441Z,23.07
2019-06-26T06:31:45.478Z,23.03
2019-06-26T06:34:28.467Z,23.90
2019-06-26T06:37:10.503Z,22.90
2019-06-26T06:39:52.465Z,21.13
2019-06-26T06:42:35.222Z,19.47
2019-06-26T06:45:17.041Z,21.00
2019-06-26T06:47:59.290Z,19.60
2019-06-26T06:50:44.043Z,19.53
2019-06-26T06:53:26.453Z,22.10
2019-06-26T06:59:01.809Z,25.27
2019-06-26T07:01:43.714Z,25.83
2019-06-26T07:04:25.691Z,26.70
2019-06-26T07:07:09.690Z,25.83
2019-06-26T07:09:51.283Z,25.77
2019-06-26T07:12:33.683Z,24.87
2019-06-26T07:15:16.362Z,22.33
2019-06-26T07:17:58.268Z,27.03
2019-06-26T07:20:40.119Z,25.03
2019-06-26T07:23:22.005Z,24.00
2019-06-26T07:26:03.759Z,21.17
2019-06-26T07:28:45.801Z,21.90
2019-06-26T07:31:27.980Z,21.13
2019-06-26T07:34:09.979Z,19.13
2019-06-26T07:36:51.949Z,19.43
2019-06-26T07:39:33.806Z,18.83
2019-06-26T07:42:15.782Z,20.87
2019-06-26T07:44:57.670Z,19.40
2019-06-26T07:47:43.815Z,17.90
2019-06-26T07:50:23.970Z,19.60
2019-06-26T07:53:06.737Z,17.10
2019-06-26T07:55:48.806Z,16.67
2019-06-26T07:58:30.727Z,15.47
2019-06-26T08:01:12.782Z,18.63
2019-06-26T08:03:54.929Z,16.57
2019-06-26T08:06:36.766Z,15.73
2019-06-26T08:09:18.940Z,16.90
2019-06-26T08:12:01.042Z,15.10
2019-06-26T08:14:43.084Z,13.97
2019-06-26T08:17:25.309Z,13.40
2019-06-26T08:20:07.349Z,14.33
2019-06-26T08:22:50.325Z,13.23
2019-06-26T08:25:33.422Z,15.10
2019-06-26T08:28:15.310Z,14.27
2019-06-26T08:30:57.182Z,13.13
2019-06-26T08:33:39.155Z,12.07
2019-06-26T08:36:21.214Z,12.40
2019-06-26T08:39:03.035Z,15.50
2019-06-26T08:41:34.818Z,17.20
2019-06-26T08:44:06.856Z,13.93
2019-06-26T08:46:48.983Z,10.83
2019-06-26T08:49:31.073Z,12.60
2019-06-26T08:52:13.459Z,11.13
2019-06-26T08:54:55.531Z,9.33
2019-06-26T08:57:37.578Z,9.53
2019-06-26T09:03:29.125Z,9.30
2019-06-26T09:06:11.262Z,9.90
2019-06-26T09:08:54.091Z,9.03
2019-06-26T09:11:36.231Z,9.27
2019-06-26T09:14:19.587Z,11.50
2019-06-26T09:16:49.819Z,11.67
2019-06-26T09:19:31.573Z,10.77
2019-06-26T09:22:13.517Z,11.27
2019-06-26T09:24:55.650Z,10.00
2019-06-26T09:27:37.697Z,9.50
2019-06-26T09:30:19.745Z,11.00
2019-06-26T09:33:01.923Z,12.17
2019-06-26T09:35:43.834Z,12.53
2019-06-26T09:38:26.166Z,11.47
2019-06-26T09:41:08.006Z,11.87
2019-06-26T09:43:49.882Z,10.80
2019-06-26T09:46:32.063Z,10.40
2019-06-26T09:49:14.128Z,14.40
2019-06-26T09:51:56.287Z,11.53
2019-06-26T09:54:38.212Z,15.33
2019-06-26T09:57:20.514Z,14.43
2019-06-26T10:00:03.151Z,15.00
2019-06-26T10:02:47.181Z,14.30
2019-06-26T10:05:29.720Z,14.83
2019-06-26T10:08:11.651Z,13.30
2019-06-26T10:10:54.086Z,12.80
2019-06-26T10:13:38.082Z,13.07
2019-06-26T10:19:22.600Z,14.60
2019-06-26T10:22:04.374Z,14.47
2019-06-26T10:24:46.416Z,14.23
2019-06-26T10:27:28.609Z,14.33
2019-06-26T10:30:11.309Z,12.53
2019-06-26T10:32:55.570Z,13.30
2019-06-26T10:35:38.135Z,13.67
2019-06-26T10:38:20.491Z,13.97
2019-06-26T10:40:52.496Z,11.57
2019-06-26T10:43:23.607Z,13.20
2019-06-26T10:46:06.041Z,12.67
2019-06-26T10:48:48.711Z,11.03
2019-06-26T10:51:30.663Z,11.73
2019-06-26T10:54:12.599Z,14.13
2019-06-26T10:56:54.485Z,13.33
2019-06-26T10:59:36.966Z,12.00
2019-06-26T11:02:20.539Z,10.30
2019-06-26T11:05:02.753Z,10.60
2019-06-26T11:07:47.867Z,11.77
2019-06-26T11:10:30.075Z,10.93
2019-06-26T11:13:12.326Z,9.87
2019-06-26T11:15:54.421Z,9.57
2019-06-26T11:18:25.851Z,11.03
2019-06-26T11:21:08.467Z,10.83
2019-06-26T11:23:50.661Z,9.37
2019-06-26T11:26:33.294Z,9.73
2019-06-26T11:29:15.090Z,9.07
2019-06-26T11:31:56.814Z,9.93
2019-06-26T11:34:39.000Z,8.40
2019-06-26T11:37:23.179Z,8.80
2019-06-26T11:40:05.769Z,8.43
2019-06-26T11:42:47.805Z,8.70
2019-06-26T11:45:29.578Z,9.60
2019-06-26T11:48:11.161Z,10.27
2019-06-26T11:50:54.212Z,9.63
2019-06-26T11:53:36.788Z,9.10
2019-06-26T11:56:19.055Z,8.63
2019-06-26T11:59:01.599Z,8.93
2019-06-26T12:01:44.135Z,8.30
2019-06-26T12:04:26.717Z,9.87
2019-06-26T12:07:08.563Z,9.63
2019-06-26T12:09:50.753Z,9.40
2019-06-26T12:12:32.840Z,9.17
2019-06-26T12:15:14.939Z,8.33
2019-06-26T12:17:57.081Z,7.53
2019-06-26T12:20:39.075Z,7.40
2019-06-26T12:23:21.548Z,7.80
2019-06-26T12:26:04.020Z,7.80
2019-06-26T12:28:46.507Z,8.03
2019-06-26T12:31:35.910Z,7.60
2019-06-26T12:34:19.659Z,7.23
2019-06-26T12:37:02.007Z,7.97
2019-06-26T12:39:44.387Z,6.70
2019-06-26T12:42:26.212Z,7.00
2019-06-26T12:45:08.630Z,7.70
2019-06-26T12:47:51.787Z,8.10
2019-06-26T12:50:35.821Z,7.53
2019-06-26T12:53:17.927Z,8.00
2019-06-26T12:56:00.978Z,8.00
2019-06-26T12:58:43.105Z,8.93
2019-06-26T13:01:25.345Z,8.67
2019-06-26T13:04:07.562Z,8.97
2019-06-26T13:06:49.740Z,8.43
2019-06-26T13:09:20.062Z,8.50
2019-06-26T13:12:07.540Z,8.60
2019-06-26T13:14:37.803Z,8.20
2019-06-26T13:17:19.901Z,8.20
2019-06-26T13:20:02.091Z,8.83
2019-06-26T13:22:44.095Z,8.40
2019-06-26T13:25:25.806Z,9.20
2019-06-26T13:28:08.103Z,10.40
2019-06-26T13:34:00.006Z,9.77
2019-06-26T13:36:42.297Z,9.73
2019-06-26T13:39:26.609Z,9.57
2019-06-26T13:42:08.718Z,9.40
2019-06-26T13:44:50.675Z,10.57
2019-06-26T13:47:33.310Z,9.63
2019-06-26T13:50:14.816Z,11.50
2019-06-26T13:52:56.905Z,12.87
2019-06-26T13:55:38.752Z,12.90
2019-06-26T13:58:20.886Z,12.10
2019-06-26T14:01:02.840Z,11.83
2019-06-26T14:03:45.091Z,11.90
2019-06-26T14:06:26.938Z,12.03
2019-06-26T14:09:09.297Z,11.93
2019-06-26T14:11:51.235Z,11.40
2019-06-26T14:14:52.605Z,11.07
2019-06-26T14:17:16.580Z,10.93
2019-06-26T14:19:58.795Z,11.20
2019-06-26T14:22:41.201Z,10.83
2019-06-26T14:25:23.275Z,11.97
2019-06-26T14:28:06.684Z,11.17
2019-06-26T14:30:48.515Z,10.80
2019-06-26T14:33:30.203Z,10.33
2019-06-26T14:36:12.848Z,11.17
2019-06-26T14:38:54.871Z,10.53
2019-06-26T14:41:39.234Z,11.67
2019-06-26T14:44:21.916Z,11.20
2019-06-26T14:47:03.950Z,11.10
2019-06-26T14:49:45.838Z,10.60
2019-06-26T14:52:28.069Z,10.87
2019-06-26T14:55:10.236Z,10.10
2019-06-26T14:57:52.303Z,11.33
2019-06-26T15:00:34.580Z,11.90
2019-06-26T15:03:17.035Z,11.10
2019-06-26T15:06:15.178Z,12.67
2019-06-26T15:08:42.892Z,11.37
2019-06-26T15:11:26.514Z,10.80
2019-06-26T15:14:08.959Z,10.23
2019-06-26T15:16:51.142Z,10.53
2019-06-26T15:19:33.327Z,10.80
2019-06-26T15:22:15.283Z,10.47
2019-06-26T15:24:56.968Z,9.77
2019-06-26T15:27:39.242Z,9.47
2019-06-26T15:30:21.444Z,9.37
2019-06-26T15:33:03.311Z,9.43
2019-06-26T15:35:46.179Z,8.70
2019-06-26T15:38:28.535Z,8.70
2019-06-26T15:41:10.626Z,7.90
2019-06-26T15:43:52.540Z,8.37
2019-06-26T15:46:34.563Z,8.00
2019-06-26T15:49:16.623Z,8.50
2019-06-26T15:52:13.763Z,9.10
2019-06-26T15:54:41.659Z,8.73
2019-06-26T15:57:23.510Z,8.57
2019-06-26T16:00:06.340Z,8.17
2019-06-26T16:02:48.187Z,8.47
2019-06-26T16:05:30.319Z,9.33
2019-06-26T16:08:13.415Z,8.40
2019-06-26T16:10:55.752Z,8.97
2019-06-26T16:13:38.170Z,8.30
2019-06-26T16:16:20.171Z,8.20
2019-06-26T16:19:08.532Z,9.10
2019-06-26T16:21:50.507Z,8.80
2019-06-26T16:24:32.382Z,8.03
2019-06-26T16:27:02.754Z,8.03
2019-06-26T16:29:48.484Z,8.40
2019-06-26T16:32:29.605Z,8.00
2019-06-26T16:35:12.315Z,7.73
2019-06-26T16:37:54.074Z,7.00
2019-06-26T16:40:38.085Z,6.60
2019-06-26T16:43:20.107Z,7.60
2019-06-26T16:46:02.164Z,7.70
2019-06-26T16:48:44.235Z,6.43
2019-06-26T16:51:26.032Z,6.20
2019-06-26T16:53:56.375Z,6.77
